sensor_id;sensor_type;location;lat;lon;timestamp;P1;durP1;ratioP1;P2;durP2;ratioP2
51244;SDS011;37840;47.562;18.738;2023-02-18T00:01:00;4.07;;;2.42;;
51244;SDS011;37840;47.562;18.738;2023-02-18T00:03:27;3.75;;;2.90;;
51244;SDS011;37840;47.562;18.738;2023-02-18T00:05:54;3.87;;;2.80;;
51244;SDS011;37840;47.562;18.738;2023-02-18T00:08:20;3.40;;;2.72;;
51244;SDS011;37840;47.562;18.738;2023-02-18T00:10:46;3.80;;;2.92;;
51244;SDS011;37840;47.562;18.738;2023-02-18T00:13:13;3.22;;;2.67;;
51244;SDS011;37840;47.562;18.738;2023-02-18T00:15:39;3.10;;;2.55;;
51244;SDS011;37840;47.562;18.738;2023-02-18T00:18:05;4.70;;;3.10;;
51244;SDS011;37840;47.562;18.738;2023-02-18T00:20:32;3.00;;;2.50;;
51244;SDS011;37840;47.562;18.738;2023-02-18T00:23:00;4.82;;;2.50;;
51244;SDS011;37840;47.562;18.738;2023-02-18T00:25:27;3.03;;;2.47;;
51244;SDS011;37840;47.562;18.738;2023-02-18T00:27:53;3.05;;;2.10;;
51244;SDS011;37840;47.562;18.738;2023-02-18T00:30:19;4.20;;;2.28;;
51244;SDS011;37840;47.562;18.738;2023-02-18T00:32:45;2.78;;;2.40;;
51244;SDS011;37840;47.562;18.738;2023-02-18T00:35:11;2.55;;;2.08;;
51244;SDS011;37840;47.562;18.738;2023-02-18T00:37:37;3.62;;;1.90;;
51244;SDS011;37840;47.562;18.738;2023-02-18T00:40:03;3.75;;;2.05;;
51244;SDS011;37840;47.562;18.738;2023-02-18T00:42:29;1.98;;;1.70;;
51244;SDS011;37840;47.562;18.738;2023-02-18T00:44:55;3.50;;;1.90;;
51244;SDS011;37840;47.562;18.738;2023-02-18T00:47:21;2.17;;;1.60;;
51244;SDS011;37840;47.562;18.738;2023-02-18T00:49:47;2.28;;;1.70;;
51244;SDS011;37840;47.562;18.738;2023-02-18T00:52:13;2.05;;;1.60;;
51244;SDS011;37840;47.562;18.738;2023-02-18T00:54:39;1.73;;;1.37;;
51244;SDS011;37840;47.562;18.738;2023-02-18T00:57:05;2.35;;;1.40;;
51244;SDS011;37840;47.562;18.738;2023-02-18T00:59:31;2.00;;;1.50;;
51244;SDS011;37840;47.562;18.738;2023-02-18T01:01:57;1.62;;;1.27;;
51244;SDS011;37840;47.562;18.738;2023-02-18T01:04:23;1.92;;;1.50;;
51244;SDS011;37840;47.562;18.738;2023-02-18T01:06:49;2.35;;;1.40;;
51244;SDS011;37840;47.562;18.738;2023-02-18T01:09:14;2.10;;;1.40;;
51244;SDS011;37840;47.562;18.738;2023-02-18T01:11:40;2.28;;;1.33;;
51244;SDS011;37840;47.562;18.738;2023-02-18T01:14:06;1.73;;;1.60;;
51244;SDS011;37840;47.562;18.738;2023-02-18T01:16:32;1.95;;;1.60;;
51244;SDS011;37840;47.562;18.738;2023-02-18T01:18:58;2.17;;;1.40;;
51244;SDS011;37840;47.562;18.738;2023-02-18T01:21:24;1.73;;;1.45;;
51244;SDS011;37840;47.562;18.738;2023-02-18T01:23:50;1.98;;;1.30;;
51244;SDS011;37840;47.562;18.738;2023-02-18T01:26:16;1.77;;;1.30;;
51244;SDS011;37840;47.562;18.738;2023-02-18T01:28:43;1.73;;;1.10;;
51244;SDS011;37840;47.562;18.738;2023-02-18T01:31:11;1.10;;;0.90;;
51244;SDS011;37840;47.562;18.738;2023-02-18T01:33:37;1.40;;;1.20;;
51244;SDS011;37840;47.562;18.738;2023-02-18T01:36:03;1.95;;;1.20;;
51244;SDS011;37840;47.562;18.738;2023-02-18T01:38:30;1.50;;;1.20;;
51244;SDS011;37840;47.562;18.738;2023-02-18T01:40:56;1.77;;;1.10;;
51244;SDS011;37840;47.562;18.738;2023-02-18T01:43:23;4.62;;;1.10;;
51244;SDS011;37840;47.562;18.738;2023-02-18T01:51:10;3.90;;;1.15;;
51244;SDS011;37840;47.562;18.738;2023-02-18T01:54:02;1.40;;;1.02;;
51244;SDS011;37840;47.562;18.738;2023-02-18T01:56:52;1.10;;;1.00;;
51244;SDS011;37840;47.562;18.738;2023-02-18T01:59:48;1.20;;;0.98;;
51244;SDS011;37840;47.562;18.738;2023-02-18T02:02:19;2.28;;;1.00;;
51244;SDS011;37840;47.562;18.738;2023-02-18T02:04:48;1.42;;;1.08;;
51244;SDS011;37840;47.562;18.738;2023-02-18T02:07:15;1.45;;;1.10;;
51244;SDS011;37840;47.562;18.738;2023-02-18T02:09:44;1.62;;;1.30;;
51244;SDS011;37840;47.562;18.738;2023-02-18T02:15:15;2.17;;;1.20;;
51244;SDS011;37840;47.562;18.738;2023-02-18T02:31:56;1.37;;;0.90;;
51244;SDS011;37840;47.562;18.738;2023-02-18T02:34:42;1.48;;;0.95;;
51244;SDS011;37840;47.562;18.738;2023-02-18T02:40:19;1.23;;;1.00;;
51244;SDS011;37840;47.562;18.738;2023-02-18T02:43:15;1.05;;;0.88;;
51244;SDS011;37840;47.562;18.738;2023-02-18T02:46:05;1.92;;;0.98;;
51244;SDS011;37840;47.562;18.738;2023-02-18T02:51:12;2.85;;;0.90;;
51244;SDS011;37840;47.562;18.738;2023-02-18T02:53:40;1.35;;;0.80;;
51244;SDS011;37840;47.562;18.738;2023-02-18T02:56:14;1.45;;;1.02;;
51244;SDS011;37840;47.562;18.738;2023-02-18T02:58:46;1.98;;;1.12;;
51244;SDS011;37840;47.562;18.738;2023-02-18T03:07:10;1.55;;;1.08;;
51244;SDS011;37840;47.562;18.738;2023-02-18T03:09:45;1.40;;;1.00;;
51244;SDS011;37840;47.562;18.738;2023-02-18T03:15:07;1.52;;;0.90;;
51244;SDS011;37840;47.562;18.738;2023-02-18T03:18:14;1.40;;;1.20;;
51244;SDS011;37840;47.562;18.738;2023-02-18T03:20:55;1.20;;;0.98;;
51244;SDS011;37840;47.562;18.738;2023-02-18T03:23:30;0.93;;;0.82;;
51244;SDS011;37840;47.562;18.738;2023-02-18T03:25:59;0.90;;;0.80;;
51244;SDS011;37840;47.562;18.738;2023-02-18T03:28:26;1.42;;;0.95;;
51244;SDS011;37840;47.562;18.738;2023-02-18T03:31:04;1.25;;;0.82;;
51244;SDS011;37840;47.562;18.738;2023-02-18T03:36:34;1.65;;;1.00;;
51244;SDS011;37840;47.562;18.738;2023-02-18T03:41:40;1.42;;;1.05;;
51244;SDS011;37840;47.562;18.738;2023-02-18T03:44:08;1.17;;;1.08;;
51244;SDS011;37840;47.562;18.738;2023-02-18T03:46:35;1.15;;;0.90;;
51244;SDS011;37840;47.562;18.738;2023-02-18T03:49:03;1.20;;;0.90;;
51244;SDS011;37840;47.562;18.738;2023-02-18T03:51:29;1.48;;;1.00;;
51244;SDS011;37840;47.562;18.738;2023-02-18T03:53:55;1.73;;;0.90;;
51244;SDS011;37840;47.562;18.738;2023-02-18T03:56:21;1.30;;;1.00;;
51244;SDS011;37840;47.562;18.738;2023-02-18T03:58:47;1.27;;;1.10;;
51244;SDS011;37840;47.562;18.738;2023-02-18T04:01:14;1.15;;;0.90;;
51244;SDS011;37840;47.562;18.738;2023-02-18T04:03:41;1.65;;;1.20;;
51244;SDS011;37840;47.562;18.738;2023-02-18T04:06:07;1.87;;;1.00;;
51244;SDS011;37840;47.562;18.738;2023-02-18T04:08:33;1.15;;;0.75;;
51244;SDS011;37840;47.562;18.738;2023-02-18T04:10:59;1.35;;;1.23;;
51244;SDS011;37840;47.562;18.738;2023-02-18T04:13:26;1.20;;;0.98;;
51244;SDS011;37840;47.562;18.738;2023-02-18T04:15:52;1.02;;;0.80;;
51244;SDS011;37840;47.562;18.738;2023-02-18T04:18:18;1.10;;;1.00;;
51244;SDS011;37840;47.562;18.738;2023-02-18T04:20:44;1.10;;;1.00;;
51244;SDS011;37840;47.562;18.738;2023-02-18T04:23:13;2.37;;;1.70;;
51244;SDS011;37840;47.562;18.738;2023-02-18T04:25:39;1.75;;;1.10;;
51244;SDS011;37840;47.562;18.738;2023-02-18T04:28:05;1.20;;;1.10;;
51244;SDS011;37840;47.562;18.738;2023-02-18T04:30:31;1.50;;;1.15;;
51244;SDS011;37840;47.562;18.738;2023-02-18T04:32:57;1.90;;;1.08;;
51244;SDS011;37840;47.562;18.738;2023-02-18T04:35:23;1.60;;;1.23;;
51244;SDS011;37840;47.562;18.738;2023-02-18T04:37:49;2.08;;;1.25;;
51244;SDS011;37840;47.562;18.738;2023-02-18T04:40:15;2.03;;;1.15;;
51244;SDS011;37840;47.562;18.738;2023-02-18T04:42:41;1.65;;;1.20;;
51244;SDS011;37840;47.562;18.738;2023-02-18T04:45:07;1.37;;;1.05;;
51244;SDS011;37840;47.562;18.738;2023-02-18T04:47:33;1.67;;;1.10;;
51244;SDS011;37840;47.562;18.738;2023-02-18T04:49:59;1.95;;;1.50;;
51244;SDS011;37840;47.562;18.738;2023-02-18T04:52:25;1.20;;;1.00;;
51244;SDS011;37840;47.562;18.738;2023-02-18T04:54:51;1.98;;;1.58;;
51244;SDS011;37840;47.562;18.738;2023-02-18T04:57:17;2.15;;;1.33;;
51244;SDS011;37840;47.562;18.738;2023-02-18T04:59:43;3.00;;;1.40;;
51244;SDS011;37840;47.562;18.738;2023-02-18T05:02:09;1.87;;;1.58;;
51244;SDS011;37840;47.562;18.738;2023-02-18T05:04:35;1.60;;;1.30;;
51244;SDS011;37840;47.562;18.738;2023-02-18T05:07:00;1.62;;;1.42;;
51244;SDS011;37840;47.562;18.738;2023-02-18T05:09:26;1.75;;;1.20;;
51244;SDS011;37840;47.562;18.738;2023-02-18T05:11:52;1.30;;;1.12;;
51244;SDS011;37840;47.562;18.738;2023-02-18T05:14:19;1.40;;;1.10;;
51244;SDS011;37840;47.562;18.738;2023-02-18T05:16:45;2.70;;;1.05;;
51244;SDS011;37840;47.562;18.738;2023-02-18T05:19:14;1.75;;;1.50;;
51244;SDS011;37840;47.562;18.738;2023-02-18T05:21:41;4.30;;;1.50;;
51244;SDS011;37840;47.562;18.738;2023-02-18T05:24:08;1.95;;;1.50;;
51244;SDS011;37840;47.562;18.738;2023-02-18T05:26:34;1.48;;;1.10;;
51244;SDS011;37840;47.562;18.738;2023-02-18T05:29:01;2.10;;;1.60;;
51244;SDS011;37840;47.562;18.738;2023-02-18T05:31:28;1.45;;;1.17;;
51244;SDS011;37840;47.562;18.738;2023-02-18T05:33:54;1.33;;;1.12;;
51244;SDS011;37840;47.562;18.738;2023-02-18T05:36:20;1.83;;;1.40;;
51244;SDS011;37840;47.562;18.738;2023-02-18T05:38:46;1.17;;;0.90;;
51244;SDS011;37840;47.562;18.738;2023-02-18T05:41:12;1.17;;;1.08;;
51244;SDS011;37840;47.562;18.738;2023-02-18T05:43:38;2.53;;;0.90;;
51244;SDS011;37840;47.562;18.738;2023-02-18T05:46:22;1.58;;;1.00;;
51244;SDS011;37840;47.562;18.738;2023-02-18T05:48:48;1.37;;;1.20;;
51244;SDS011;37840;47.562;18.738;2023-02-18T05:51:14;1.42;;;1.02;;
51244;SDS011;37840;47.562;18.738;2023-02-18T05:53:40;1.35;;;1.20;;
51244;SDS011;37840;47.562;18.738;2023-02-18T05:56:06;1.37;;;1.10;;
51244;SDS011;37840;47.562;18.738;2023-02-18T05:58:32;1.73;;;1.10;;
51244;SDS011;37840;47.562;18.738;2023-02-18T06:00:58;1.95;;;1.30;;
51244;SDS011;37840;47.562;18.738;2023-02-18T06:03:24;1.52;;;1.27;;
51244;SDS011;37840;47.562;18.738;2023-02-18T06:05:50;1.62;;;1.30;;
51244;SDS011;37840;47.562;18.738;2023-02-18T06:08:17;1.65;;;1.02;;
51244;SDS011;37840;47.562;18.738;2023-02-18T06:10:45;1.77;;;1.25;;
51244;SDS011;37840;47.562;18.738;2023-02-18T06:13:11;1.50;;;1.10;;
51244;SDS011;37840;47.562;18.738;2023-02-18T06:15:37;1.70;;;1.00;;
51244;SDS011;37840;47.562;18.738;2023-02-18T06:18:04;1.30;;;1.05;;
51244;SDS011;37840;47.562;18.738;2023-02-18T06:20:30;1.45;;;1.20;;
51244;SDS011;37840;47.562;18.738;2023-02-18T06:22:56;1.73;;;1.27;;
51244;SDS011;37840;47.562;18.738;2023-02-18T06:25:23;0.98;;;0.82;;
51244;SDS011;37840;47.562;18.738;2023-02-18T06:27:49;1.20;;;1.02;;
51244;SDS011;37840;47.562;18.738;2023-02-18T06:30:15;1.33;;;1.00;;
51244;SDS011;37840;47.562;18.738;2023-02-18T06:32:41;1.20;;;1.00;;
51244;SDS011;37840;47.562;18.738;2023-02-18T06:35:07;2.72;;;1.30;;
51244;SDS011;37840;47.562;18.738;2023-02-18T06:37:33;1.90;;;1.12;;
51244;SDS011;37840;47.562;18.738;2023-02-18T06:39:59;2.85;;;0.90;;
51244;SDS011;37840;47.562;18.738;2023-02-18T06:42:25;1.30;;;1.20;;
51244;SDS011;37840;47.562;18.738;2023-02-18T06:44:51;1.02;;;0.90;;
51244;SDS011;37840;47.562;18.738;2023-02-18T06:47:16;1.20;;;1.05;;
51244;SDS011;37840;47.562;18.738;2023-02-18T06:49:42;1.92;;;0.98;;
51244;SDS011;37840;47.562;18.738;2023-02-18T06:52:08;1.60;;;1.30;;
51244;SDS011;37840;47.562;18.738;2023-02-18T06:54:34;1.87;;;1.55;;
51244;SDS011;37840;47.562;18.738;2023-02-18T06:57:00;1.33;;;1.23;;
51244;SDS011;37840;47.562;18.738;2023-02-18T06:59:26;1.73;;;1.48;;
51244;SDS011;37840;47.562;18.738;2023-02-18T07:01:52;1.60;;;1.50;;
51244;SDS011;37840;47.562;18.738;2023-02-18T07:04:18;1.70;;;1.60;;
51244;SDS011;37840;47.562;18.738;2023-02-18T07:06:44;1.60;;;1.25;;
51244;SDS011;37840;47.562;18.738;2023-02-18T07:09:10;1.87;;;1.67;;
51244;SDS011;37840;47.562;18.738;2023-02-18T07:11:36;2.25;;;1.98;;
51244;SDS011;37840;47.562;18.738;2023-02-18T07:14:02;2.28;;;1.75;;
51244;SDS011;37840;47.562;18.738;2023-02-18T07:16:28;2.20;;;1.27;;
51244;SDS011;37840;47.562;18.738;2023-02-18T07:18:54;2.53;;;1.50;;
51244;SDS011;37840;47.562;18.738;2023-02-18T07:21:20;1.80;;;1.60;;
51244;SDS011;37840;47.562;18.738;2023-02-18T07:23:46;1.73;;;1.45;;
51244;SDS011;37840;47.562;18.738;2023-02-18T07:26:13;1.50;;;1.40;;
51244;SDS011;37840;47.562;18.738;2023-02-18T07:28:39;1.23;;;1.12;;
51244;SDS011;37840;47.562;18.738;2023-02-18T07:31:06;1.33;;;1.20;;
51244;SDS011;37840;47.562;18.738;2023-02-18T07:33:33;1.92;;;1.60;;
51244;SDS011;37840;47.562;18.738;2023-02-18T07:36:00;1.75;;;1.30;;
51244;SDS011;37840;47.562;18.738;2023-02-18T07:38:27;1.80;;;1.50;;
51244;SDS011;37840;47.562;18.738;2023-02-18T07:40:53;2.60;;;2.28;;
51244;SDS011;37840;47.562;18.738;2023-02-18T07:43:20;2.35;;;1.80;;
51244;SDS011;37840;47.562;18.738;2023-02-18T07:45:46;3.03;;;2.30;;
51244;SDS011;37840;47.562;18.738;2023-02-18T07:48:13;3.10;;;2.40;;
51244;SDS011;37840;47.562;18.738;2023-02-18T07:50:39;2.12;;;1.55;;
51244;SDS011;37840;47.562;18.738;2023-02-18T07:53:06;1.83;;;1.50;;
51244;SDS011;37840;47.562;18.738;2023-02-18T07:55:33;1.80;;;1.60;;
51244;SDS011;37840;47.562;18.738;2023-02-18T07:58:18;2.03;;;1.30;;
51244;SDS011;37840;47.562;18.738;2023-02-18T08:00:46;1.55;;;1.20;;
51244;SDS011;37840;47.562;18.738;2023-02-18T08:03:15;1.92;;;1.40;;
51244;SDS011;37840;47.562;18.738;2023-02-18T08:05:42;1.67;;;1.30;;
51244;SDS011;37840;47.562;18.738;2023-02-18T08:08:15;1.37;;;1.10;;
51244;SDS011;37840;47.562;18.738;2023-02-18T08:10:44;2.80;;;1.48;;
51244;SDS011;37840;47.562;18.738;2023-02-18T08:13:11;4.20;;;3.28;;
51244;SDS011;37840;47.562;18.738;2023-02-18T08:15:38;4.60;;;3.30;;
51244;SDS011;37840;47.562;18.738;2023-02-18T08:18:05;1.62;;;1.50;;
51244;SDS011;37840;47.562;18.738;2023-02-18T08:20:36;1.77;;;1.58;;
51244;SDS011;37840;47.562;18.738;2023-02-18T08:23:03;1.45;;;1.35;;
51244;SDS011;37840;47.562;18.738;2023-02-18T08:25:30;1.50;;;1.30;;
51244;SDS011;37840;47.562;18.738;2023-02-18T08:27:56;2.65;;;1.33;;
51244;SDS011;37840;47.562;18.738;2023-02-18T08:30:22;1.80;;;1.10;;
51244;SDS011;37840;47.562;18.738;2023-02-18T08:32:48;1.50;;;1.30;;
51244;SDS011;37840;47.562;18.738;2023-02-18T08:35:14;1.23;;;1.10;;
51244;SDS011;37840;47.562;18.738;2023-02-18T08:37:40;2.10;;;1.90;;
51244;SDS011;37840;47.562;18.738;2023-02-18T08:40:08;1.45;;;1.10;;
51244;SDS011;37840;47.562;18.738;2023-02-18T08:42:34;1.27;;;1.10;;
51244;SDS011;37840;47.562;18.738;2023-02-18T08:45:00;2.20;;;1.25;;
51244;SDS011;37840;47.562;18.738;2023-02-18T08:47:26;1.40;;;1.10;;
51244;SDS011;37840;47.562;18.738;2023-02-18T08:49:52;2.08;;;1.10;;
51244;SDS011;37840;47.562;18.738;2023-02-18T08:52:19;1.35;;;0.98;;
51244;SDS011;37840;47.562;18.738;2023-02-18T08:54:45;1.33;;;1.08;;
51244;SDS011;37840;47.562;18.738;2023-02-18T08:59:56;2.60;;;1.23;;
51244;SDS011;37840;47.562;18.738;2023-02-18T09:02:22;1.75;;;1.00;;
51244;SDS011;37840;47.562;18.738;2023-02-18T09:08:15;1.27;;;1.10;;
51244;SDS011;37840;47.562;18.738;2023-02-18T09:10:41;2.12;;;0.90;;
51244;SDS011;37840;47.562;18.738;2023-02-18T09:13:07;1.52;;;0.90;;
51244;SDS011;37840;47.562;18.738;2023-02-18T09:26:37;1.62;;;1.20;;
51244;SDS011;37840;47.562;18.738;2023-02-18T09:32:29;1.02;;;0.80;;
51244;SDS011;37840;47.562;18.738;2023-02-18T09:38:36;1.12;;;0.80;;
51244;SDS011;37840;47.562;18.738;2023-02-18T09:41:26;1.45;;;1.10;;
51244;SDS011;37840;47.562;18.738;2023-02-18T09:48:00;1.48;;;1.00;;
51244;SDS011;37840;47.562;18.738;2023-02-18T09:53:17;1.08;;;0.85;;
51244;SDS011;37840;47.562;18.738;2023-02-18T09:59:05;0.60;;;0.50;;
51244;SDS011;37840;47.562;18.738;2023-02-18T10:01:39;0.98;;;0.75;;
51244;SDS011;37840;47.562;18.738;2023-02-18T10:04:09;1.10;;;0.60;;
51244;SDS011;37840;47.562;18.738;2023-02-18T10:06:37;0.77;;;0.60;;
51244;SDS011;37840;47.562;18.738;2023-02-18T10:09:05;0.88;;;0.60;;
51244;SDS011;37840;47.562;18.738;2023-02-18T10:11:46;1.02;;;0.60;;
51244;SDS011;37840;47.562;18.738;2023-02-18T10:14:40;0.77;;;0.55;;
51244;SDS011;37840;47.562;18.738;2023-02-18T10:17:14;1.20;;;0.93;;
51244;SDS011;37840;47.562;18.738;2023-02-18T10:19:42;0.80;;;0.60;;
51244;SDS011;37840;47.562;18.738;2023-02-18T10:22:11;1.00;;;0.70;;
51244;SDS011;37840;47.562;18.738;2023-02-18T10:24:42;0.80;;;0.70;;
51244;SDS011;37840;47.562;18.738;2023-02-18T10:27:15;0.80;;;0.70;;
51244;SDS011;37840;47.562;18.738;2023-02-18T10:29:47;1.10;;;0.57;;
51244;SDS011;37840;47.562;18.738;2023-02-18T10:32:26;1.55;;;0.98;;
51244;SDS011;37840;47.562;18.738;2023-02-18T10:35:34;0.90;;;0.80;;
51244;SDS011;37840;47.562;18.738;2023-02-18T10:38:08;1.20;;;0.90;;
51244;SDS011;37840;47.562;18.738;2023-02-18T10:46:25;1.30;;;1.02;;
51244;SDS011;37840;47.562;18.738;2023-02-18T10:49:08;1.85;;;1.33;;
51244;SDS011;37840;47.562;18.738;2023-02-18T10:51:57;1.62;;;1.00;;
51244;SDS011;37840;47.562;18.738;2023-02-18T10:54:27;1.48;;;1.37;;
51244;SDS011;37840;47.562;18.738;2023-02-18T10:57:21;1.50;;;1.20;;
51244;SDS011;37840;47.562;18.738;2023-02-18T10:59:55;1.67;;;1.05;;
51244;SDS011;37840;47.562;18.738;2023-02-18T11:02:28;1.37;;;1.10;;
51244;SDS011;37840;47.562;18.738;2023-02-18T11:04:57;2.00;;;1.55;;
51244;SDS011;37840;47.562;18.738;2023-02-18T11:07:31;2.12;;;1.62;;
51244;SDS011;37840;47.562;18.738;2023-02-18T11:10:09;1.60;;;1.30;;
51244;SDS011;37840;47.562;18.738;2023-02-18T11:12:43;2.57;;;1.73;;
51244;SDS011;37840;47.562;18.738;2023-02-18T11:17:38;1.50;;;1.40;;
51244;SDS011;37840;47.562;18.738;2023-02-18T11:22:57;2.50;;;2.00;;
51244;SDS011;37840;47.562;18.738;2023-02-18T11:25:25;1.70;;;1.50;;
51244;SDS011;37840;47.562;18.738;2023-02-18T11:28:26;2.62;;;1.75;;
51244;SDS011;37840;47.562;18.738;2023-02-18T11:30:44;2.42;;;1.98;;
51244;SDS011;37840;47.562;18.738;2023-02-18T11:36:11;3.10;;;1.77;;
51244;SDS011;37840;47.562;18.738;2023-02-18T11:38:42;5.05;;;2.00;;
51244;SDS011;37840;47.562;18.738;2023-02-18T11:41:13;1.52;;;1.27;;
51244;SDS011;37840;47.562;18.738;2023-02-18T11:43:42;2.17;;;1.58;;
51244;SDS011;37840;47.562;18.738;2023-02-18T11:48:39;2.75;;;1.75;;
51244;SDS011;37840;47.562;18.738;2023-02-18T11:51:10;2.10;;;1.60;;
51244;SDS011;37840;47.562;18.738;2023-02-18T11:56:18;1.90;;;1.30;;
51244;SDS011;37840;47.562;18.738;2023-02-18T11:58:47;1.30;;;1.02;;
51244;SDS011;37840;47.562;18.738;2023-02-18T12:01:19;1.90;;;1.00;;
51244;SDS011;37840;47.562;18.738;2023-02-18T12:03:58;1.20;;;0.88;;
51244;SDS011;37840;47.562;18.738;2023-02-18T12:11:56;2.30;;;0.90;;
51244;SDS011;37840;47.562;18.738;2023-02-18T12:14:26;0.85;;;0.73;;
51244;SDS011;37840;47.562;18.738;2023-02-18T12:19:36;1.17;;;0.85;;
51244;SDS011;37840;47.562;18.738;2023-02-18T12:30:54;1.23;;;0.73;;
51244;SDS011;37840;47.562;18.738;2023-02-18T12:36:06;0.82;;;0.70;;
51244;SDS011;37840;47.562;18.738;2023-02-18T12:41:36;1.17;;;0.70;;
51244;SDS011;37840;47.562;18.738;2023-02-18T12:47:14;0.80;;;0.60;;
51244;SDS011;37840;47.562;18.738;2023-02-18T12:55:24;0.90;;;0.60;;
51244;SDS011;37840;47.562;18.738;2023-02-18T13:03:20;0.95;;;0.70;;
51244;SDS011;37840;47.562;18.738;2023-02-18T13:14:32;0.75;;;0.50;;
51244;SDS011;37840;47.562;18.738;2023-02-18T13:17:04;0.70;;;0.60;;
51244;SDS011;37840;47.562;18.738;2023-02-18T13:19:39;0.80;;;0.50;;
51244;SDS011;37840;47.562;18.738;2023-02-18T13:22:07;1.25;;;0.73;;
51244;SDS011;37840;47.562;18.738;2023-02-18T13:24:38;1.98;;;0.60;;
51244;SDS011;37840;47.562;18.738;2023-02-18T13:29:45;0.70;;;0.50;;
51244;SDS011;37840;47.562;18.738;2023-02-18T13:32:50;2.12;;;0.70;;
51244;SDS011;37840;47.562;18.738;2023-02-18T13:35:20;0.85;;;0.60;;
51244;SDS011;37840;47.562;18.738;2023-02-18T13:38:11;0.95;;;0.62;;
51244;SDS011;37840;47.562;18.738;2023-02-18T13:40:51;0.68;;;0.50;;
51244;SDS011;37840;47.562;18.738;2023-02-18T13:53:58;1.48;;;0.60;;
51244;SDS011;37840;47.562;18.738;2023-02-18T13:56:30;0.90;;;0.68;;
51244;SDS011;37840;47.562;18.738;2023-02-18T13:59:06;1.25;;;0.60;;
51244;SDS011;37840;47.562;18.738;2023-02-18T14:01:37;0.68;;;0.40;;
51244;SDS011;37840;47.562;18.738;2023-02-18T14:07:22;0.93;;;0.50;;
51244;SDS011;37840;47.562;18.738;2023-02-18T14:10:09;0.80;;;0.70;;
51244;SDS011;37840;47.562;18.738;2023-02-18T14:20:30;1.15;;;0.60;;
51244;SDS011;37840;47.562;18.738;2023-02-18T14:31:00;1.10;;;0.77;;
51244;SDS011;37840;47.562;18.738;2023-02-18T14:33:31;2.40;;;2.10;;
51244;SDS011;37840;47.562;18.738;2023-02-18T14:36:18;1.77;;;1.02;;
51244;SDS011;37840;47.562;18.738;2023-02-18T14:38:54;6.15;;;5.00;;
51244;SDS011;37840;47.562;18.738;2023-02-18T14:44:58;1.40;;;1.15;;
51244;SDS011;37840;47.562;18.738;2023-02-18T14:47:36;1.45;;;1.00;;
51244;SDS011;37840;47.562;18.738;2023-02-18T14:50:04;1.85;;;0.77;;
51244;SDS011;37840;47.562;18.738;2023-02-18T14:52:47;1.37;;;0.90;;
51244;SDS011;37840;47.562;18.738;2023-02-18T14:55:27;1.37;;;0.80;;
51244;SDS011;37840;47.562;18.738;2023-02-18T14:58:00;1.30;;;1.00;;
51244;SDS011;37840;47.562;18.738;2023-02-18T15:00:33;1.60;;;1.12;;
51244;SDS011;37840;47.562;18.738;2023-02-18T15:03:03;0.95;;;0.70;;
51244;SDS011;37840;47.562;18.738;2023-02-18T15:05:36;1.52;;;1.02;;
51244;SDS011;37840;47.562;18.738;2023-02-18T15:08:09;1.80;;;0.90;;
51244;SDS011;37840;47.562;18.738;2023-02-18T15:10:56;1.45;;;1.00;;
51244;SDS011;37840;47.562;18.738;2023-02-18T15:13:29;1.80;;;1.48;;
51244;SDS011;37840;47.562;18.738;2023-02-18T15:16:01;2.65;;;1.40;;
51244;SDS011;37840;47.562;18.738;2023-02-18T15:18:36;2.58;;;1.40;;
51244;SDS011;37840;47.562;18.738;2023-02-18T15:21:06;1.42;;;1.00;;
51244;SDS011;37840;47.562;18.738;2023-02-18T15:23:34;1.27;;;0.73;;
51244;SDS011;37840;47.562;18.738;2023-02-18T15:26:03;3.25;;;1.70;;
51244;SDS011;37840;47.562;18.738;2023-02-18T15:28:31;4.62;;;2.05;;
51244;SDS011;37840;47.562;18.738;2023-02-18T15:30:58;2.92;;;2.40;;
51244;SDS011;37840;47.562;18.738;2023-02-18T15:33:26;4.43;;;3.00;;
51244;SDS011;37840;47.562;18.738;2023-02-18T15:36:05;6.75;;;4.55;;
51244;SDS011;37840;47.562;18.738;2023-02-18T15:38:36;8.80;;;6.15;;
51244;SDS011;37840;47.562;18.738;2023-02-18T15:41:07;5.62;;;4.15;;
51244;SDS011;37840;47.562;18.738;2023-02-18T15:43:38;13.52;;;8.60;;
51244;SDS011;37840;47.562;18.738;2023-02-18T15:46:17;11.68;;;8.27;;
51244;SDS011;37840;47.562;18.738;2023-02-18T15:48:46;13.10;;;9.07;;
51244;SDS011;37840;47.562;18.738;2023-02-18T15:51:14;20.08;;;13.70;;
51244;SDS011;37840;47.562;18.738;2023-02-18T15:53:47;25.67;;;16.73;;
51244;SDS011;37840;47.562;18.738;2023-02-18T15:56:28;24.03;;;16.10;;
51244;SDS011;37840;47.562;18.738;2023-02-18T15:59:09;26.25;;;17.45;;
51244;SDS011;37840;47.562;18.738;2023-02-18T16:01:41;26.25;;;18.58;;
51244;SDS011;37840;47.562;18.738;2023-02-18T16:04:07;27.58;;;18.27;;
51244;SDS011;37840;47.562;18.738;2023-02-18T16:06:34;27.85;;;19.15;;
51244;SDS011;37840;47.562;18.738;2023-02-18T16:09:48;25.67;;;18.23;;
51244;SDS011;37840;47.562;18.738;2023-02-18T16:11:57;28.60;;;18.65;;
51244;SDS011;37840;47.562;18.738;2023-02-18T16:22:30;32.53;;;22.67;;
51244;SDS011;37840;47.562;18.738;2023-02-18T16:25:06;34.50;;;22.02;;
51244;SDS011;37840;47.562;18.738;2023-02-18T16:30:18;44.85;;;22.02;;
51244;SDS011;37840;47.562;18.738;2023-02-18T16:32:46;38.53;;;24.58;;
51244;SDS011;37840;47.562;18.738;2023-02-18T16:35:12;37.60;;;24.30;;
51244;SDS011;37840;47.562;18.738;2023-02-18T16:37:38;39.53;;;26.20;;
51244;SDS011;37840;47.562;18.738;2023-02-18T16:42:56;39.30;;;24.98;;
51244;SDS011;37840;47.562;18.738;2023-02-18T16:45:31;38.80;;;24.80;;
51244;SDS011;37840;47.562;18.738;2023-02-18T16:47:59;39.22;;;24.85;;
51244;SDS011;37840;47.562;18.738;2023-02-18T16:50:27;40.28;;;23.65;;
51244;SDS011;37840;47.562;18.738;2023-02-18T16:52:55;36.45;;;24.63;;
51244;SDS011;37840;47.562;18.738;2023-02-18T16:55:22;37.90;;;25.27;;
51244;SDS011;37840;47.562;18.738;2023-02-18T16:57:53;41.17;;;24.70;;
51244;SDS011;37840;47.562;18.738;2023-02-18T17:00:20;39.63;;;25.45;;
51244;SDS011;37840;47.562;18.738;2023-02-18T17:02:51;38.30;;;25.00;;
51244;SDS011;37840;47.562;18.738;2023-02-18T17:05:20;40.83;;;25.52;;
51244;SDS011;37840;47.562;18.738;2023-02-18T17:07:48;46.13;;;31.50;;
51244;SDS011;37840;47.562;18.738;2023-02-18T17:10:14;47.38;;;30.67;;
51244;SDS011;37840;47.562;18.738;2023-02-18T17:12:40;46.28;;;29.75;;
51244;SDS011;37840;47.562;18.738;2023-02-18T17:17:55;41.08;;;28.00;;
51244;SDS011;37840;47.562;18.738;2023-02-18T17:20:24;42.62;;;27.75;;
51244;SDS011;37840;47.562;18.738;2023-02-18T17:22:51;41.47;;;26.60;;
51244;SDS011;37840;47.562;18.738;2023-02-18T17:25:21;45.17;;;29.48;;
51244;SDS011;37840;47.562;18.738;2023-02-18T17:28:00;46.88;;;29.35;;
51244;SDS011;37840;47.562;18.738;2023-02-18T17:30:26;48.65;;;30.08;;
51244;SDS011;37840;47.562;18.738;2023-02-18T17:32:53;40.97;;;26.20;;
51244;SDS011;37840;47.562;18.738;2023-02-18T17:35:20;35.88;;;23.35;;
51244;SDS011;37840;47.562;18.738;2023-02-18T17:37:47;43.65;;;27.15;;
51244;SDS011;37840;47.562;18.738;2023-02-18T17:40:17;41.97;;;25.67;;
51244;SDS011;37840;47.562;18.738;2023-02-18T17:42:45;46.25;;;28.67;;
51244;SDS011;37840;47.562;18.738;2023-02-18T17:47:46;55.35;;;32.00;;
51244;SDS011;37840;47.562;18.738;2023-02-18T17:50:12;39.03;;;24.98;;
51244;SDS011;37840;47.562;18.738;2023-02-18T17:52:38;34.63;;;21.55;;
51244;SDS011;37840;47.562;18.738;2023-02-18T17:55:38;34.50;;;22.67;;
51244;SDS011;37840;47.562;18.738;2023-02-18T17:57:58;36.58;;;21.95;;
51244;SDS011;37840;47.562;18.738;2023-02-18T18:00:25;34.40;;;22.40;;
51244;SDS011;37840;47.562;18.738;2023-02-18T18:02:51;36.58;;;22.98;;